CYNL

SPECI CYNL 181403Z AUTO 35012G17KT 5/8SM VV009 M03/M04 A2910 RMK AO1 PRESRR SLP881
SPECI
LOCATION
CYNL
DATE - TIME
181403Z
WIND
350 TRUE @ 12 KNOTS GUSTS 17 KNOTS
VISIBILITY
5/8SM
RUNWAY VISUAL RANGE
NOT REPORTED
WEATHER
CLOUDINESS
TEMP / DEWPOINT
-3 ºC / -4 ºC
ALTIMETER
29.10 in. Hg
RECENT WEATHER
NOT REPORTED
WIND SHEAR
NOT REPORTED
REMARKS
RMK AO1 PRESRR SLP881
SEA LEVEL PRESSURE: hPa

CYNL

METAR CYNL 181400Z AUTO 35010G17KT 3/4SM VV009 M03/M04 A2910 RMK AO1 PRESRR SLP880
METAR
LOCATION
CYNL
DATE - TIME
181400Z
WIND
350 TRUE @ 10 KNOTS GUSTS 17 KNOTS
VISIBILITY
3/4SM
RUNWAY VISUAL RANGE
NOT REPORTED
WEATHER
CLOUDINESS
TEMP / DEWPOINT
-3 ºC / -4 ºC
ALTIMETER
29.10 in. Hg
RECENT WEATHER
NOT REPORTED
WIND SHEAR
NOT REPORTED
REMARKS
RMK AO1 PRESRR SLP880
SEA LEVEL PRESSURE: hPa

CYNL

SPECI CYNL 181357Z AUTO 00010G18KT 3/4SM VV009 M03/M04 A2909 RMK AO1 SLP880
SPECI
LOCATION
CYNL
DATE - TIME
181357Z
WIND
000 TRUE @ 10 KNOTS GUSTS 18 KNOTS
VISIBILITY
3/4SM
RUNWAY VISUAL RANGE
NOT REPORTED
WEATHER
CLOUDINESS
TEMP / DEWPOINT
-3 ºC / -4 ºC
ALTIMETER
29.09 in. Hg
RECENT WEATHER
NOT REPORTED
WIND SHEAR
NOT REPORTED
REMARKS
RMK AO1 SLP880
SEA LEVEL PRESSURE: hPa

Your time UTC time
 
 
Weather data provided by AXYS Technologies Inc., www.axystechnologies.com
 
Station History